Cuba, MO (65453)

8:34 AM CDT on August 30, 2016 (GMT -0500)
Cuba | | Change Station

Elev 1040 ft 38.06 °N, 91.40 °W | Updated 1 minute ago

Clear
Clear
82.6 °F
Feels Like 90 °F
N
2.2
Wind Variable Wind from SSE

Today
High -- | Low -- °F
--% Chance of Precip.
Yesterday
High -- | Low -- °F
Precip. -- in
Pressure 30.12 in
Visibility 10.0 miles
Clouds Clear
Heat Index 90 °F
Dew Point 76 °F
Humidity 80%
Rainfall 0.00 in
Snow Depth Not available.
6:34 AM 7:37 PM
Waning Crescent, 4% visible
METAR KVIH 301253Z AUTO 00000KT 10SM CLR 25/22 A3016 RMK AO2 SLP200 T02500222
Pressure 30.12 in
Visibility 10.0 miles
Clouds Clear
Heat Index 90 °F
Dew Point 76 °F
Humidity 80%
Rainfall 0.00 in
Snow Depth Not available.
6:34 AM 7:37 PM
Waning Crescent, 4% visible
METAR KVIH 301253Z AUTO 00000KT 10SM CLR 25/22 A3016 RMK AO2 SLP200 T02500222

10-Day Weather Forecast

Almanac

Astronomy

Aug. 30, 2016 Rise Set
Actual Time
Civil Twilight
Nautical Twilight
Astronomical Twilight
Moon
Length of Visible Light
Length of Day
Tomorrow will be .
, % of the Moon is Illuminated

Today's Extremes

State Highs State Lows

Community

WunderPhotos

Upload Photos

1,935,831 photos uploaded!

WunderBlog® & News

Nearby

Air Quality

  Air Quality AQ Index Pollutant
Not available.

Snow Depth

Station Depth Elevation

Earthquake Activity

City Distance Mag. Time & Date
Minimum magnitude displayed is 2.5.

Coastal Water Temperatures

Place Temperature

Stations

Nearby Weather Stations

Station Location Temp. Windchill Dew Point Humidity Wind Precip. Elev Updated Type
                   

Watches & Warnings

There are currently no watches in effect.